Time;durP1;ratioP1;P1;durP2;ratioP2;P2;SDS_P1;SDS_P2;PMS_P1;PMS_P2;Temp;Humidity;BMP_temperature;BMP_pressure;BME280_temperature;BME280_humidity;BME280_pressure;Samples;Min_cycle;Max_cycle;Signal;HPM_P1;HPM_P2
2023/02/18 00:01:19;;;;;;;19.92;3.58;;;7.00;99.90;;;;;;5034704;28;20028;-73
2023/02/18 00:03:45;;;;;;;14.75;3.75;;;7.10;99.90;;;;;;5036529;28;20472;-73
2023/02/18 00:06:14;;;;;;;26.25;3.85;;;7.00;99.90;;;;;;5043086;28;20030;-73
2023/02/18 00:08:41;;;;;;;29.05;5.03;;;7.10;99.90;;;;;;5038618;28;20813;-73
2023/02/18 00:11:08;;;;;;;28.90;3.72;;;7.10;99.90;;;;;;5032654;28;20066;-73
2023/02/18 00:13:35;;;;;;;27.17;4.53;;;7.10;99.90;;;;;;5035570;28;20048;-73
2023/02/18 00:16:06;;;;;;;33.30;4.97;;;7.10;99.90;;;;;;5037154;28;20021;-73
2023/02/18 00:18:33;;;;;;;19.70;3.45;;;7.10;99.90;;;;;;5040756;28;20029;-73
2023/02/18 00:20:58;;;;;;;30.30;4.40;;;7.00;99.90;;;;;;5040048;28;20025;-73
2023/02/18 00:23:25;;;;;;;26.02;3.67;;;7.00;99.90;;;;;;5040804;28;20190;-73
2023/02/18 00:26:01;;;;;;;29.08;4.15;;;7.00;99.90;;;;;;5039856;28;20055;-73
2023/02/18 00:28:27;;;;;;;28.70;3.78;;;7.10;99.90;;;;;;5039963;28;20489;-73
2023/02/18 00:30:53;;;;;;;22.73;3.65;;;7.00;99.90;;;;;;5039743;28;20033;-74
2023/02/18 00:33:19;;;;;;;27.15;4.25;;;7.00;99.90;;;;;;5038786;28;20036;-73
2023/02/18 00:35:45;;;;;;;31.08;5.18;;;7.00;99.90;;;;;;5038345;28;20086;-73
2023/02/18 00:38:10;;;;;;;28.38;4.22;;;6.90;99.90;;;;;;5040525;28;20104;-73
2023/02/18 00:40:37;;;;;;;29.15;4.80;;;6.90;99.90;;;;;;5022080;28;20543;-73
2023/02/18 00:43:03;;;;;;;24.45;3.97;;;6.90;99.90;;;;;;5041216;28;20095;-73
2023/02/18 00:45:30;;;;;;;28.75;4.68;;;6.90;99.90;;;;;;5040000;28;20029;-73
2023/02/18 00:47:56;;;;;;;25.33;4.30;;;6.90;99.90;;;;;;5034625;28;20021;-72
2023/02/18 00:50:22;;;;;;;26.65;4.10;;;6.80;99.90;;;;;;5040973;28;20033;-73
2023/02/18 00:52:47;;;;;;;20.60;3.75;;;6.80;99.90;;;;;;5040196;28;20742;-73
2023/02/18 00:55:13;;;;;;;25.00;4.68;;;6.80;99.90;;;;;;5040215;28;20105;-73
2023/02/18 00:57:39;;;;;;;27.00;3.67;;;6.80;99.90;;;;;;5039134;28;20031;-72
2023/02/18 01:00:07;;;;;;;26.92;4.68;;;6.80;99.90;;;;;;5038028;28;20336;-72
2023/02/18 01:02:33;;;;;;;25.67;4.07;;;6.80;99.90;;;;;;5035800;28;20039;-74
2023/02/18 01:04:58;;;;;;;23.27;4.20;;;6.80;99.90;;;;;;5034374;28;20459;-73
2023/02/18 01:07:24;;;;;;;27.05;3.72;;;6.80;99.90;;;;;;5039072;28;20043;-73
2023/02/18 01:09:50;;;;;;;25.05;3.40;;;6.80;99.90;;;;;;5039367;28;20120;-73
2023/02/18 01:12:16;;;;;;;34.53;4.75;;;6.90;99.90;;;;;;5037422;28;20026;-73
2023/02/18 01:14:41;;;;;;;32.10;5.07;;;6.80;99.90;;;;;;5037951;28;20029;-73
2023/02/18 01:17:07;;;;;;;21.50;4.00;;;6.80;99.90;;;;;;5023205;28;20026;-74
2023/02/18 01:19:33;;;;;;;29.75;4.28;;;6.80;99.90;;;;;;5037619;28;20488;-72
2023/02/18 01:21:59;;;;;;;23.50;3.72;;;6.80;99.90;;;;;;5036624;28;20067;-73
2023/02/18 01:24:25;;;;;;;25.15;3.50;;;6.80;99.90;;;;;;5022352;28;20041;-73
2023/02/18 01:26:50;;;;;;;25.02;4.25;;;6.80;99.90;;;;;;5034766;28;20029;-73
2023/02/18 01:29:16;;;;;;;30.73;4.88;;;6.80;99.90;;;;;;5020501;28;20566;-73
2023/02/18 01:31:42;;;;;;;30.52;4.25;;;6.80;99.90;;;;;;5036511;28;20032;-73
2023/02/18 01:34:07;;;;;;;20.00;2.92;;;6.80;99.90;;;;;;5039766;28;20075;-73
2023/02/18 01:36:33;;;;;;;23.60;3.63;;;6.80;99.90;;;;;;5034871;28;20112;-73
2023/02/18 01:38:59;;;;;;;23.80;3.28;;;6.80;99.90;;;;;;5036068;28;20056;-73
2023/02/18 01:41:25;;;;;;;18.13;3.40;;;6.80;99.90;;;;;;5018811;28;20036;-73
2023/02/18 01:44:12;;;;;;;27.30;3.88;;;6.70;99.90;;;;;;5037429;28;20041;-73
2023/02/18 01:46:38;;;;;;;28.70;4.18;;;6.70;99.90;;;;;;5038283;28;20029;-73
2023/02/18 01:49:04;;;;;;;24.27;3.33;;;6.70;99.90;;;;;;5039072;28;20032;-72
2023/02/18 01:51:40;;;;;;;30.40;4.72;;;6.70;99.90;;;;;;5041960;28;20510;-73
2023/02/18 01:54:11;;;;;;;26.30;3.88;;;6.70;99.90;;;;;;5034863;28;20060;-72
2023/02/18 01:56:46;;;;;;;25.17;3.60;;;6.70;99.90;;;;;;5035813;28;20060;-73
2023/02/18 01:59:16;;;;;;;23.73;3.83;;;6.60;99.90;;;;;;5038027;28;20022;-73
2023/02/18 02:01:44;;;;;;;23.33;3.80;;;6.70;99.90;;;;;;5048930;28;20107;-73
2023/02/18 02:04:10;;;;;;;21.30;3.92;;;6.70;99.90;;;;;;5041431;28;20336;-73
2023/02/18 02:06:36;;;;;;;23.60;3.28;;;6.70;99.90;;;;;;5019462;28;20161;-73
2023/02/18 02:09:06;;;;;;;33.50;4.70;;;6.60;99.90;;;;;;5018674;28;20493;-73
2023/02/18 02:11:38;;;;;;;25.50;4.63;;;6.70;99.90;;;;;;5034052;28;20033;-73
2023/02/18 02:14:04;;;;;;;19.58;3.78;;;6.70;99.90;;;;;;5036673;28;20478;-73
2023/02/18 02:16:51;;;;;;;20.20;2.90;;;6.70;99.90;;;;;;5035500;28;20393;-73
2023/02/18 02:19:41;;;;;;;23.23;3.03;;;6.70;99.90;;;;;;5019593;28;20029;-72
2023/02/18 02:22:37;;;;;;;19.80;4.10;;;6.60;99.90;;;;;;5035995;28;20087;-73
2023/02/18 02:25:25;;;;;;;18.70;3.42;;;6.60;99.90;;;;;;5040290;28;20091;-73
2023/02/18 02:27:59;;;;;;;24.02;3.42;;;6.70;99.90;;;;;;5035654;28;20037;-73
2023/02/18 02:30:31;;;;;;;14.18;2.70;;;6.60;99.90;;;;;;5035703;28;20033;-73
2023/02/18 02:33:34;;;;;;;25.73;3.92;;;6.70;99.90;;;;;;5033203;28;20375;-73
2023/02/18 02:36:11;;;;;;;25.00;3.30;;;6.70;99.90;;;;;;5037612;28;20029;-73
2023/02/18 02:39:01;;;;;;;22.55;3.20;;;6.70;99.90;;;;;;5036149;28;20026;-73
2023/02/18 02:41:57;;;;;;;18.30;3.08;;;6.60;99.90;;;;;;5036496;28;20111;-73
2023/02/18 02:44:45;;;;;;;17.98;2.95;;;6.60;99.90;;;;;;5032710;28;20037;-73
2023/02/18 02:47:23;;;;;;;21.83;4.13;;;6.60;99.90;;;;;;5032019;28;20029;-73
2023/02/18 02:50:11;;;;;;;21.70;3.10;;;6.60;99.90;;;;;;5035099;28;20031;-73
2023/02/18 02:52:43;;;;;;;17.27;2.55;;;6.60;99.90;;;;;;5036122;28;20037;-73
2023/02/18 02:55:10;;;;;;;19.27;3.00;;;6.60;99.90;;;;;;5038380;28;20033;-74
2023/02/18 02:57:41;;;;;;;21.10;4.53;;;6.60;99.90;;;;;;5035913;28;20367;-73
2023/02/18 03:00:09;;;;;;;25.13;3.50;;;6.70;99.90;;;;;;5037695;28;20022;-73
2023/02/18 03:03:09;;;;;;;19.35;3.53;;;6.60;99.90;;;;;;5033284;28;20411;-73
2023/02/18 03:05:54;;;;;;;19.63;3.10;;;6.60;99.90;;;;;;5035336;28;20044;-73
2023/02/18 03:08:35;;;;;;;19.30;3.13;;;6.60;99.90;;;;;;5034918;28;20063;-73
2023/02/18 03:11:10;;;;;;;16.92;2.90;;;6.60;99.90;;;;;;5033252;28;20068;-73
2023/02/18 03:13:57;;;;;;;20.63;4.10;;;6.70;99.90;;;;;;5034965;28;20456;-72
2023/02/18 03:16:51;;;;;;;21.70;3.88;;;6.60;99.90;;;;;;5032596;28;20026;-73
2023/02/18 03:19:46;;;;;;;20.70;3.08;;;6.60;99.90;;;;;;5035901;28;20036;-73
2023/02/18 03:22:24;;;;;;;19.52;3.60;;;6.60;99.90;;;;;;5035698;28;20039;-73
2023/02/18 03:24:53;;;;;;;20.58;3.67;;;6.60;99.90;;;;;;5037229;28;20033;-73
2023/02/18 03:27:18;;;;;;;16.70;3.10;;;6.60;99.90;;;;;;5037073;28;20052;-73
2023/02/18 03:29:46;;;;;;;17.02;2.97;;;6.60;99.90;;;;;;5037973;28;20033;-73
2023/02/18 03:32:16;;;;;;;18.35;2.88;;;6.60;99.90;;;;;;5040670;28;20033;-73
2023/02/18 03:34:49;;;;;;;25.13;3.15;;;6.60;99.90;;;;;;5034060;28;20160;-73
2023/02/18 03:37:15;;;;;;;20.77;3.28;;;6.60;99.90;;;;;;5036645;28;20025;-73
2023/02/18 03:39:45;;;;;;;17.13;3.00;;;6.70;99.90;;;;;;5035250;28;20029;-73
2023/02/18 03:42:11;;;;;;;17.95;3.40;;;6.60;99.90;;;;;;5038423;28;20029;-73
2023/02/18 03:44:36;;;;;;;25.83;3.35;;;6.60;99.90;;;;;;5035172;28;20102;-73
2023/02/18 03:47:02;;;;;;;21.45;2.83;;;6.60;99.90;;;;;;5036077;28;20032;-73
2023/02/18 03:49:28;;;;;;;21.38;2.50;;;6.70;99.90;;;;;;5036897;28;20123;-73
2023/02/18 03:51:54;;;;;;;19.17;4.25;;;6.70;99.90;;;;;;5040766;28;20120;-73
2023/02/18 03:54:20;;;;;;;16.27;3.08;;;6.70;99.90;;;;;;5022960;28;20039;-73
2023/02/18 03:56:45;;;;;;;22.98;3.42;;;6.60;99.90;;;;;;5042737;28;20067;-73
2023/02/18 03:59:12;;;;;;;19.30;2.22;;;6.60;99.90;;;;;;5039936;28;20059;-73
2023/02/18 04:01:38;;;;;;;18.55;3.05;;;6.60;99.90;;;;;;5037614;28;20043;-72
2023/02/18 04:04:04;;;;;;;12.88;2.08;;;6.60;99.90;;;;;;5028662;28;20036;-73
2023/02/18 04:06:30;;;;;;;20.20;2.15;;;6.70;99.90;;;;;;5039498;28;20036;-73
2023/02/18 04:08:56;;;;;;;18.85;2.67;;;6.60;99.90;;;;;;5040195;28;20025;-73
2023/02/18 04:11:22;;;;;;;15.82;3.20;;;6.70;99.90;;;;;;5040470;28;20041;-72
2023/02/18 04:13:48;;;;;;;18.73;2.25;;;6.60;99.90;;;;;;5041053;28;20025;-73
2023/02/18 04:16:13;;;;;;;12.02;2.67;;;6.70;99.90;;;;;;5040544;28;20033;-73
2023/02/18 04:18:39;;;;;;;9.25;2.15;;;6.70;99.90;;;;;;5038462;28;20892;-73
2023/02/18 04:21:05;;;;;;;21.60;3.20;;;6.60;99.90;;;;;;5042977;28;20572;-73
2023/02/18 04:23:31;;;;;;;14.70;2.33;;;6.60;99.90;;;;;;5041962;28;20033;-73
2023/02/18 04:25:57;;;;;;;12.88;1.70;;;6.70;99.90;;;;;;5042139;28;20660;-73
2023/02/18 04:28:22;;;;;;;11.90;2.15;;;6.60;99.90;;;;;;5037693;28;20026;-73
2023/02/18 04:30:49;;;;;;;20.80;2.35;;;6.60;99.90;;;;;;5039675;28;20476;-73
2023/02/18 04:33:15;;;;;;;13.02;2.00;;;6.60;99.90;;;;;;5040230;28;20032;-73
2023/02/18 04:35:41;;;;;;;16.98;2.30;;;6.60;99.90;;;;;;5037096;28;20492;-73
2023/02/18 04:38:07;;;;;;;16.83;2.25;;;6.60;99.90;;;;;;5037883;28;20381;-73
2023/02/18 04:40:33;;;;;;;18.15;2.47;;;6.60;99.90;;;;;;5037709;28;20025;-73
2023/02/18 04:43:00;;;;;;;14.05;2.00;;;6.60;99.90;;;;;;5037100;28;20147;-73
2023/02/18 04:45:26;;;;;;;17.35;2.50;;;6.60;99.90;;;;;;5037617;28;20364;-73
2023/02/18 04:47:53;;;;;;;20.02;2.67;;;6.50;99.90;;;;;;5037740;28;20036;-74
2023/02/18 04:50:19;;;;;;;17.98;3.17;;;6.50;99.90;;;;;;5020981;28;20032;-72
2023/02/18 04:52:44;;;;;;;14.88;2.75;;;6.50;99.90;;;;;;5043071;28;20045;-73
2023/02/18 04:55:11;;;;;;;13.23;2.67;;;6.50;99.90;;;;;;5041070;28;20033;-73
2023/02/18 04:57:37;;;;;;;10.15;2.05;;;6.50;99.90;;;;;;5042548;28;20033;-73
2023/02/18 05:00:06;;;;;;;16.83;2.42;;;6.50;99.90;;;;;;5044835;28;20032;-73
2023/02/18 05:02:32;;;;;;;12.48;1.90;;;6.50;99.90;;;;;;5041046;28;20640;-73
2023/02/18 05:04:58;;;;;;;13.48;1.95;;;6.50;99.90;;;;;;5039647;28;20243;-73
2023/02/18 05:07:24;;;;;;;16.40;2.33;;;6.60;99.90;;;;;;5040340;28;20029;-72
2023/02/18 05:09:49;;;;;;;14.95;2.40;;;6.60;99.90;;;;;;5044237;28;20035;-73
2023/02/18 05:12:15;;;;;;;15.82;2.38;;;6.60;99.90;;;;;;5037833;28;20030;-72
2023/02/18 05:14:41;;;;;;;19.13;2.13;;;6.60;99.90;;;;;;5039529;28;20037;-73
2023/02/18 05:17:06;;;;;;;12.73;1.98;;;6.60;99.90;;;;;;5043378;28;20029;-73
2023/02/18 05:19:32;;;;;;;15.40;2.28;;;6.60;99.90;;;;;;5041751;28;20112;-74
2023/02/18 05:21:58;;;;;;;12.55;2.05;;;6.60;99.90;;;;;;5040125;28;20481;-73
2023/02/18 05:24:24;;;;;;;10.77;1.77;;;6.60;99.90;;;;;;5040580;28;20087;-73
2023/02/18 05:26:49;;;;;;;16.55;2.28;;;6.60;99.90;;;;;;5042108;28;20983;-73
2023/02/18 05:29:15;;;;;;;11.32;2.17;;;6.70;99.90;;;;;;5038645;28;20111;-73
2023/02/18 05:31:41;;;;;;;12.13;2.22;;;6.60;99.90;;;;;;5037579;28;20080;-73
2023/02/18 05:34:07;;;;;;;15.40;2.47;;;6.60;99.90;;;;;;5042948;28;20032;-72
2023/02/18 05:36:33;;;;;;;19.10;2.38;;;6.60;99.90;;;;;;5024011;28;20564;-73
2023/02/18 05:39:00;;;;;;;12.43;2.08;;;6.60;99.90;;;;;;5039593;28;20040;-72
2023/02/18 05:41:25;;;;;;;11.65;2.20;;;6.60;99.90;;;;;;5056010;28;20029;-74
2023/02/18 05:46:35;;;;;;;12.85;2.25;;;6.60;99.90;;;;;;5038724;28;20047;-73
2023/02/18 05:49:01;;;;;;;11.70;2.35;;;6.60;99.90;;;;;;5039523;28;20032;-72
2023/02/18 05:51:28;;;;;;;13.88;1.92;;;6.60;99.90;;;;;;5040478;28;20594;-73
2023/02/18 05:53:54;;;;;;;13.20;2.47;;;6.60;99.90;;;;;;5043841;28;20018;-72
2023/02/18 05:56:20;;;;;;;16.23;2.35;;;6.50;99.90;;;;;;5042363;28;20057;-73
2023/02/18 05:58:46;;;;;;;9.38;1.65;;;6.50;99.90;;;;;;5039369;28;20061;-72
2023/02/18 06:01:11;;;;;;;11.18;2.10;;;6.50;99.90;;;;;;5038010;28;20028;-73
2023/02/18 06:03:37;;;;;;;16.58;2.30;;;6.40;99.90;;;;;;5041212;28;20410;-74
2023/02/18 06:06:03;;;;;;;18.23;2.53;;;6.50;99.90;;;;;;5040565;28;20053;-75
2023/02/18 06:08:29;;;;;;;13.88;2.28;;;6.40;99.90;;;;;;5040002;28;20017;-73
2023/02/18 06:10:55;;;;;;;11.60;1.85;;;6.50;99.90;;;;;;5031043;28;20021;-73
2023/02/18 06:13:21;;;;;;;12.05;1.80;;;7.10;99.90;;;;;;5041037;28;20090;-73
2023/02/18 06:15:50;;;;;;;12.55;2.22;;;6.90;99.90;;;;;;5039961;28;20017;-73
2023/02/18 06:18:17;;;;;;;15.75;2.22;;;6.70;99.90;;;;;;5020731;28;20030;-73
2023/02/18 06:20:42;;;;;;;10.20;2.58;;;6.50;99.90;;;;;;5041288;28;20544;-74
2023/02/18 06:23:08;;;;;;;10.48;1.55;;;6.50;99.90;;;;;;5040208;28;20160;-74
2023/02/18 06:25:34;;;;;;;15.02;2.28;;;6.40;99.90;;;;;;5039825;28;20401;-73
2023/02/18 06:28:00;;;;;;;18.23;3.20;;;6.30;99.90;;;;;;5042921;28;20108;-73
2023/02/18 06:30:26;;;;;;;9.20;1.75;;;6.40;99.90;;;;;;5040269;28;20603;-73
2023/02/18 06:32:52;;;;;;;10.27;2.13;;;6.40;99.90;;;;;;5036721;28;20034;-73
2023/02/18 06:35:18;;;;;;;11.10;2.47;;;6.40;99.90;;;;;;5041451;28;20024;-73
2023/02/18 06:37:45;;;;;;;9.95;1.45;;;6.40;99.90;;;;;;5040687;28;20437;-73
2023/02/18 06:40:11;;;;;;;6.65;1.52;;;6.40;99.90;;;;;;5037751;28;20510;-73
2023/02/18 06:42:36;;;;;;;9.20;1.52;;;6.30;99.90;;;;;;5039656;28;20036;-72
2023/02/18 06:45:02;;;;;;;17.85;1.50;;;6.40;99.90;;;;;;5038180;28;20048;-73
2023/02/18 06:47:29;;;;;;;10.48;1.85;;;6.90;99.90;;;;;;5037290;28;20052;-73
2023/02/18 06:49:55;;;;;;;14.75;2.08;;;6.90;99.90;;;;;;5022264;28;20037;-73
2023/02/18 06:52:21;;;;;;;13.48;3.05;;;6.90;99.90;;;;;;5031345;28;20033;-72
2023/02/18 06:54:46;;;;;;;11.38;2.70;;;6.90;99.90;;;;;;5040463;28;20026;-73
2023/02/18 06:57:12;;;;;;;12.43;2.03;;;6.80;99.90;;;;;;5022847;28;20028;-73
2023/02/18 06:59:38;;;;;;;11.43;1.48;;;6.70;99.90;;;;;;5039295;28;20034;-72
2023/02/18 07:02:03;;;;;;;7.10;1.63;;;6.60;99.90;;;;;;5040299;28;20033;-72
2023/02/18 07:04:29;;;;;;;8.43;1.75;;;6.60;99.90;;;;;;5038898;28;20079;-72
2023/02/18 07:06:55;;;;;;;10.40;1.80;;;6.60;99.90;;;;;;5035667;28;20055;-73
2023/02/18 07:09:21;;;;;;;11.35;1.98;;;6.60;99.90;;;;;;5021568;28;20027;-73
2023/02/18 07:11:50;;;;;;;11.38;2.00;;;6.60;99.90;;;;;;5038986;28;20060;-73
2023/02/18 07:14:15;;;;;;;12.50;3.38;;;6.60;99.90;;;;;;5034331;28;20040;-74
2023/02/18 07:16:41;;;;;;;11.30;2.75;;;6.60;99.90;;;;;;5034358;28;20029;-73
2023/02/18 07:19:07;;;;;;;16.38;2.65;;;6.60;99.90;;;;;;5038059;28;20035;-72
2023/02/18 07:21:33;;;;;;;12.55;2.63;;;6.60;99.90;;;;;;5041043;28;20025;-72
2023/02/18 07:23:59;;;;;;;9.32;2.20;;;6.60;99.90;;;;;;5032900;28;20029;-73
2023/02/18 07:26:24;;;;;;;13.18;2.45;;;6.60;99.90;;;;;;5040617;28;20533;-72
2023/02/18 07:28:50;;;;;;;16.35;2.50;;;6.60;99.90;;;;;;5042079;28;20047;-72
2023/02/18 07:31:17;;;;;;;9.98;2.22;;;6.50;99.90;;;;;;5039475;28;20159;-72
2023/02/18 07:33:42;;;;;;;13.88;2.70;;;6.60;99.90;;;;;;5042025;28;20063;-73
2023/02/18 07:36:08;;;;;;;11.25;2.17;;;6.60;99.90;;;;;;5041892;28;20021;-74
2023/02/18 07:38:34;;;;;;;10.70;2.08;;;6.60;99.90;;;;;;5032691;28;20029;-72
2023/02/18 07:41:00;;;;;;;8.63;2.08;;;6.60;99.90;;;;;;5035043;28;20044;-73
2023/02/18 07:43:27;;;;;;;13.80;2.38;;;6.60;99.90;;;;;;5034208;28;20792;-73
2023/02/18 07:45:54;;;;;;;12.25;2.90;;;6.60;99.90;;;;;;5034947;28;20024;-72
2023/02/18 07:48:20;;;;;;;8.70;2.25;;;6.70;99.90;;;;;;5036245;28;20571;-73
2023/02/18 07:50:46;;;;;;;13.40;3.22;;;6.70;99.90;;;;;;5037364;28;20033;-73
2023/02/18 07:53:13;;;;;;;14.45;4.30;;;6.70;99.90;;;;;;5036153;28;20223;-73
2023/02/18 07:55:48;;;;;;;14.93;3.45;;;6.70;99.90;;;;;;5040694;28;20032;-73
2023/02/18 07:58:19;;;;;;;14.77;4.00;;;6.70;99.90;;;;;;5039822;28;20085;-72
2023/02/18 08:00:48;;;;;;;14.02;4.95;;;6.70;99.90;;;;;;5036058;28;20446;-73
2023/02/18 08:03:17;;;;;;;15.85;3.40;;;6.70;99.90;;;;;;5040895;28;20041;-73
2023/02/18 08:05:44;;;;;;;11.60;3.63;;;6.80;99.90;;;;;;5038528;28;20079;-73
2023/02/18 08:08:14;;;;;;;9.63;2.83;;;6.80;99.90;;;;;;5038020;28;20176;-75
2023/02/18 08:10:41;;;;;;;9.02;2.80;;;6.80;99.90;;;;;;5036896;28;20038;-73
2023/02/18 08:13:07;;;;;;;16.77;3.78;;;6.80;99.90;;;;;;5041108;28;20033;-75
2023/02/18 08:15:33;;;;;;;10.68;3.47;;;6.80;99.90;;;;;;5042851;28;20405;-75
2023/02/18 08:17:59;;;;;;;9.05;2.42;;;6.80;99.90;;;;;;5040766;28;20039;-75
2023/02/18 08:20:26;;;;;;;14.13;2.65;;;6.80;99.90;;;;;;5041863;28;20052;-76
2023/02/18 08:22:56;;;;;;;14.88;2.78;;;6.80;99.90;;;;;;5042945;28;20024;-74
2023/02/18 08:25:22;;;;;;;10.60;2.42;;;6.80;99.90;;;;;;5041410;28;20108;-73
2023/02/18 08:27:48;;;;;;;8.93;2.33;;;6.90;99.90;;;;;;5042185;28;20117;-76
2023/02/18 08:30:14;;;;;;;11.70;2.22;;;6.80;99.90;;;;;;5040365;28;20037;-76
2023/02/18 08:32:39;;;;;;;12.27;2.45;;;6.90;99.90;;;;;;5036259;28;20038;-74
2023/02/18 08:35:06;;;;;;;9.30;2.60;;;6.80;99.90;;;;;;5037828;28;20047;-74
2023/02/18 08:37:36;;;;;;;8.65;2.13;;;6.80;99.90;;;;;;5035402;28;20053;-73
2023/02/18 08:40:02;;;;;;;14.85;3.70;;;6.80;99.90;;;;;;5026345;28;20040;-73
2023/02/18 08:42:30;;;;;;;16.83;2.95;;;6.80;99.90;;;;;;5032911;28;20033;-73
2023/02/18 08:44:59;;;;;;;14.30;3.03;;;6.80;99.90;;;;;;5036069;28;20079;-73
2023/02/18 08:47:25;;;;;;;10.93;2.60;;;6.80;99.90;;;;;;5037832;28;20033;-73
2023/02/18 08:49:54;;;;;;;12.43;2.63;;;6.80;99.90;;;;;;5039529;28;20121;-73
2023/02/18 08:52:21;;;;;;;18.65;3.53;;;6.80;99.90;;;;;;5021136;28;20104;-73
2023/02/18 08:54:46;;;;;;;10.80;2.28;;;6.80;99.90;;;;;;5035759;28;20415;-73
2023/02/18 08:57:15;;;;;;;10.43;2.42;;;6.80;99.90;;;;;;5034519;28;20026;-73
2023/02/18 08:59:41;;;;;;;15.05;2.92;;;6.80;99.90;;;;;;5033381;28;20252;-73
2023/02/18 09:02:08;;;;;;;9.82;3.20;;;6.70;99.90;;;;;;5039756;28;20034;-72
2023/02/18 09:04:37;;;;;;;12.35;2.70;;;6.70;99.90;;;;;;5028240;28;20121;-72
2023/02/18 09:07:03;;;;;;;13.13;3.95;;;6.70;99.90;;;;;;5016403;28;20418;-73
2023/02/18 09:09:29;;;;;;;9.88;2.95;;;6.70;99.90;;;;;;5038834;28;20045;-73
2023/02/18 09:11:54;;;;;;;13.20;4.00;;;6.70;99.90;;;;;;5041651;28;20034;-73
2023/02/18 09:14:20;;;;;;;16.33;5.05;;;6.70;99.90;;;;;;5039519;28;20025;-73
2023/02/18 09:16:46;;;;;;;14.15;4.55;;;6.70;99.90;;;;;;5039476;28;20464;-73
2023/02/18 09:19:12;;;;;;;15.48;4.70;;;6.70;99.90;;;;;;5042702;28;20048;-73
2023/02/18 09:21:37;;;;;;;19.75;4.85;;;6.70;99.90;;;;;;5039162;28;20037;-72
2023/02/18 09:24:03;;;;;;;19.13;5.65;;;6.70;99.90;;;;;;5021076;28;20032;-73
2023/02/18 09:26:29;;;;;;;16.88;5.97;;;6.70;99.90;;;;;;5037098;28;20025;-73
2023/02/18 09:28:56;;;;;;;16.25;6.28;;;6.70;99.90;;;;;;5016971;28;20024;-73
2023/02/18 09:31:24;;;;;;;14.75;6.63;;;6.70;99.90;;;;;;5035375;28;21958;-72
2023/02/18 09:33:54;;;;;;;14.93;7.13;;;6.70;99.90;;;;;;5037403;28;20029;-76
2023/02/18 09:36:19;;;;;;;14.35;6.72;;;6.70;99.90;;;;;;5034050;28;20876;-75
2023/02/18 09:38:47;;;;;;;14.43;6.97;;;6.70;99.90;;;;;;5015621;28;20070;-75
2023/02/18 09:41:53;;;;;;;16.42;7.63;;;6.70;99.90;;;;;;5018187;28;20037;-72
2023/02/18 09:44:32;;;;;;;21.17;9.57;;;6.70;99.90;;;;;;5029279;28;20033;-72
2023/02/18 09:46:58;;;;;;;19.85;8.93;;;6.70;99.90;;;;;;5031209;28;20018;-72
2023/02/18 09:49:32;;;;;;;20.58;10.35;;;6.70;99.90;;;;;;5031796;28;20080;-73
2023/02/18 09:52:22;;;;;;;20.38;8.60;;;6.70;99.90;;;;;;5032713;28;20458;-72
2023/02/18 09:54:49;;;;;;;21.37;10.00;;;6.60;99.90;;;;;;5030285;28;20041;-73
2023/02/18 09:57:24;;;;;;;16.75;9.57;;;6.60;99.90;;;;;;5028945;28;20037;-72
2023/02/18 10:00:01;;;;;;;21.65;11.02;;;6.60;99.90;;;;;;5031058;28;20496;-75
2023/02/18 10:02:27;;;;;;;23.45;12.50;;;6.70;99.90;;;;;;5029614;28;20858;-73
2023/02/18 10:04:55;;;;;;;22.02;11.98;;;6.70;99.90;;;;;;5033792;28;20032;-73
2023/02/18 10:07:28;;;;;;;17.25;10.63;;;6.70;99.90;;;;;;5039707;28;20024;-74
2023/02/18 10:09:58;;;;;;;14.55;8.77;;;6.70;99.90;;;;;;5032900;28;20029;-71
2023/02/18 10:12:25;;;;;;;18.30;9.10;;;6.80;99.90;;;;;;5034705;28;20606;-71
2023/02/18 10:14:54;;;;;;;21.15;10.32;;;6.70;99.90;;;;;;5034631;28;20040;-72
2023/02/18 10:17:23;;;;;;;22.15;9.73;;;6.80;99.90;;;;;;5031547;28;20065;-73
2023/02/18 10:19:52;;;;;;;19.85;10.48;;;6.70;99.90;;;;;;5040584;28;20057;-74
2023/02/18 10:22:19;;;;;;;24.95;11.15;;;6.70;99.90;;;;;;5037952;28;20079;-74
2023/02/18 10:24:56;;;;;;;18.88;10.90;;;7.30;99.90;;;;;;5034249;28;20520;-74
2023/02/18 10:27:27;;;;;;;21.90;10.32;;;7.20;99.90;;;;;;5031096;28;20037;-74
2023/02/18 10:29:58;;;;;;;17.48;10.20;;;7.60;99.90;;;;;;5010985;28;20025;-73
2023/02/18 10:32:39;;;;;;;18.15;9.70;;;7.40;99.90;;;;;;5053055;28;20041;-72
2023/02/18 10:35:17;;;;;;;15.30;9.63;;;7.20;99.90;;;;;;5029438;28;20064;-72
2023/02/18 10:37:49;;;;;;;17.45;8.98;;;7.20;99.90;;;;;;5035558;28;20100;-72
2023/02/18 10:40:36;;;;;;;18.50;9.65;;;7.10;99.90;;;;;;5033760;28;20055;-71
2023/02/18 10:43:14;;;;;;;14.93;9.13;;;7.10;99.90;;;;;;5035654;28;20029;-72
2023/02/18 10:46:01;;;;;;;16.80;10.30;;;7.10;99.90;;;;;;5037512;28;20033;-72
2023/02/18 10:49:05;;;;;;;13.05;9.20;;;7.10;99.90;;;;;;5034496;28;20029;-71
2023/02/18 10:51:36;;;;;;;19.05;8.20;;;7.10;99.90;;;;;;4963158;28;20047;-71
2023/02/18 10:54:02;;;;;;;19.23;10.43;;;7.40;99.90;;;;;;5028535;28;20314;-72
2023/02/18 10:56:34;;;;;;;19.25;10.65;;;7.40;99.90;;;;;;5024557;28;20025;-73
2023/02/18 10:59:17;;;;;;;13.43;9.85;;;7.40;99.90;;;;;;5031444;28;20052;-73
2023/02/18 11:01:43;;;;;;;25.25;14.57;;;7.40;99.90;;;;;;5030567;28;20025;-73
2023/02/18 11:04:18;;;;;;;22.27;13.00;;;7.40;99.90;;;;;;5033599;28;20041;-73
2023/02/18 11:06:53;;;;;;;17.60;12.07;;;7.40;99.90;;;;;;5036620;28;20025;-73
2023/02/18 11:09:26;;;;;;;16.90;9.80;;;7.40;99.90;;;;;;5034644;28;20031;-73
2023/02/18 11:12:01;;;;;;;12.02;6.78;;;7.50;99.90;;;;;;5034611;28;20025;-72
2023/02/18 11:14:41;;;;;;;9.75;6.60;;;7.50;99.90;;;;;;5054185;28;20026;-73
2023/02/18 11:17:21;;;;;;;10.75;7.38;;;7.50;99.90;;;;;;5034753;28;20029;-73
2023/02/18 11:20:00;;;;;;;11.52;6.78;;;7.50;99.90;;;;;;5039072;28;20234;-73
2023/02/18 11:22:35;;;;;;;7.65;5.47;;;7.60;99.90;;;;;;5034104;28;20112;-73
2023/02/18 11:25:17;;;;;;;9.57;6.45;;;7.60;99.90;;;;;;5037847;28;20489;-73
2023/02/18 11:27:45;;;;;;;11.20;6.40;;;7.60;99.90;;;;;;5031298;28;20041;-73
2023/02/18 11:30:42;;;;;;;9.63;5.57;;;7.70;99.90;;;;;;5042970;28;20040;-73
2023/02/18 11:33:50;;;;;;;9.02;5.22;;;7.80;99.90;;;;;;5026649;28;20163;-73
2023/02/18 11:36:24;;;;;;;10.32;4.80;;;7.90;99.90;;;;;;5008292;28;20492;-75
2023/02/18 11:38:59;;;;;;;6.43;4.05;;;7.90;99.90;;;;;;5028041;28;20036;-73
2023/02/18 11:41:42;;;;;;;10.23;3.97;;;8.00;99.90;;;;;;5032711;28;20642;-75
2023/02/18 11:44:17;;;;;;;6.70;2.65;;;8.20;99.90;;;;;;5026749;28;20463;-72
2023/02/18 11:47:03;;;;;;;5.80;2.67;;;8.40;99.90;;;;;;5030871;28;20032;-74
2023/02/18 11:49:29;;;;;;;4.65;1.95;;;8.40;99.90;;;;;;5032223;28;20043;-73
2023/02/18 11:52:17;;;;;;;4.97;1.98;;;8.50;99.90;;;;;;5031553;28;20447;-73
2023/02/18 11:55:03;;;;;;;3.50;1.40;;;8.70;99.90;;;;;;5030331;28;20039;-73
2023/02/18 11:57:31;;;;;;;4.05;1.33;;;8.70;99.90;;;;;;5033575;28;20474;-73
2023/02/18 11:59:58;;;;;;;2.55;1.00;;;8.70;99.90;;;;;;5036400;28;20018;-73
2023/02/18 12:02:37;;;;;;;3.22;1.33;;;8.80;99.90;;;;;;5026192;28;20090;-73
2023/02/18 12:05:10;;;;;;;2.10;0.95;;;8.80;99.90;;;;;;5032450;28;20032;-75
2023/02/18 12:07:49;;;;;;;2.60;1.45;;;8.90;99.90;;;;;;5038370;28;20087;-72
2023/02/18 12:10:22;;;;;;;3.08;1.60;;;8.90;99.90;;;;;;5044983;28;20501;-73
2023/02/18 12:13:20;;;;;;;2.08;1.30;;;8.90;99.90;;;;;;5047450;28;20025;-73
2023/02/18 12:16:22;;;;;;;2.75;1.40;;;8.90;99.90;;;;;;5029362;28;20033;-73
2023/02/18 12:18:59;;;;;;;1.90;1.10;;;9.00;99.90;;;;;;5043626;28;20056;-72
2023/02/18 12:21:32;;;;;;;1.08;0.90;;;9.00;99.90;;;;;;5041733;28;20021;-72
2023/02/18 12:24:08;;;;;;;3.50;1.33;;;9.00;99.90;;;;;;5037891;28;20072;-72
2023/02/18 12:26:49;;;;;;;4.60;1.17;;;9.00;99.90;;;;;;5043081;28;20016;-75
2023/02/18 12:29:42;;;;;;;6.45;1.38;;;9.00;99.90;;;;;;5036336;28;20032;-72
2023/02/18 12:32:33;;;;;;;4.38;1.40;;;9.00;99.90;;;;;;5038764;28;20021;-72
2023/02/18 12:35:09;;;;;;;6.63;2.05;;;9.00;99.90;;;;;;5037188;28;20090;-73
2023/02/18 12:38:10;;;;;;;7.28;2.67;;;8.90;99.90;;;;;;5038529;28;20036;-73
2023/02/18 12:40:51;;;;;;;9.70;2.75;;;9.20;99.90;;;;;;5024681;28;20535;-73
2023/02/18 12:43:26;;;;;;;10.85;2.42;;;9.00;99.90;;;;;;5036443;28;20029;-73
2023/02/18 12:46:38;;;;;;;10.43;2.33;;;9.00;99.90;;;;;;5040188;28;20066;-72
2023/02/18 12:49:46;;;;;;;10.82;2.63;;;9.00;99.90;;;;;;5033867;28;20056;-72
2023/02/18 12:52:50;;;;;;;10.75;2.78;;;8.90;99.90;;;;;;5016957;28;20405;-73
2023/02/18 12:55:50;;;;;;;17.17;3.45;;;8.90;99.90;;;;;;5022524;28;20040;-74
2023/02/18 12:58:28;;;;;;;13.52;3.28;;;8.90;99.90;;;;;;5013674;28;20029;-73
2023/02/18 13:01:15;;;;;;;15.75;3.20;;;8.90;99.90;;;;;;5034409;28;20028;-72
2023/02/18 13:04:02;;;;;;;14.55;2.70;;;8.90;99.90;;;;;;5033849;28;20025;-73
2023/02/18 13:07:06;;;;;;;18.08;2.95;;;8.90;99.90;;;;;;5034954;28;20032;-73
2023/02/18 13:09:50;;;;;;;13.93;3.58;;;8.90;99.90;;;;;;4996823;28;20072;-73
2023/02/18 13:12:44;;;;;;;25.52;4.35;;;8.90;99.90;;;;;;4988775;28;20042;-73